CheckWX is a tool to help pilots better visualize weather data.  It is not intended as a substitute for an official pre-flight weather briefing.

09:24:17 UTC

KSBA METAR
Santa Barbara Municipal Airport
Santa Barbara, California, USA
Current

31 mins ago

KSBA 200853Z AUTO 28003KT 10SM CLR 06/00 A3006 RMK AO2 SLP180 T00610000 58017 $
Observed
Feb-20 @ 08:53 UTC
Wind
  • 280° at 3 KTS
Visibility
16,093 meters
Flight Rules
VFR
Cloud Levels
  • Clear skies
Temperature
C / 43°F
Dewpoint
C / 32°F
Humidity
66%
Altimeter
30.06" Hg
Pressure
1018 hPa
Previous

2 hours ago

KSBA 200753Z AUTO 21003KT 10SM CLR 06/00 A3009 RMK AO2 SLP188 T00610000 401330006 $
Observed
Feb-20 @ 07:53 UTC
Wind
  • 210° at 3 KTS
Visibility
16,093 meters
Flight Rules
VFR
Cloud Levels
  • Clear skies
Temperature
C / 43°F
Dewpoint
C / 32°F
Humidity
66%
Altimeter
30.09" Hg
Pressure
1018.8 hPa
Previous

3 hours ago

KSBA 200653Z AUTO 00000KT 10SM CLR 06/01 A3010 RMK AO2 SLP191 T00560011 $
Observed
Feb-20 @ 06:53 UTC
Visibility
16,093 meters
Flight Rules
VFR
Cloud Levels
  • Clear skies
Temperature
C / 43°F
Dewpoint
C / 34°F
Humidity
71%
Altimeter
30.1" Hg
Pressure
1019.1 hPa